createdAt,value
2019-03-28T00:00:02.431Z,5.60
2019-03-28T00:02:32.096Z,5.60
2019-03-28T00:05:01.635Z,5.60
2019-03-28T00:07:31.278Z,5.50
2019-03-28T00:10:01.475Z,5.50
2019-03-28T00:12:31.052Z,5.30
2019-03-28T00:15:00.574Z,5.40
2019-03-28T00:17:30.203Z,5.50
2019-03-28T00:19:59.741Z,5.30
2019-03-28T00:22:49.321Z,5.10
2019-03-28T00:25:18.760Z,5.20
2019-03-28T00:27:48.389Z,5.30
2019-03-28T00:30:19.408Z,5.20
2019-03-28T00:32:48.958Z,5.20
2019-03-28T00:35:18.564Z,5.20
2019-03-28T00:37:48.147Z,5.20
2019-03-28T00:40:17.623Z,5.20
2019-03-28T00:42:47.252Z,5.20
2019-03-28T00:45:16.874Z,4.90
2019-03-28T00:47:46.398Z,4.80
2019-03-28T00:52:44.797Z,4.80
2019-03-28T00:55:14.374Z,4.70
2019-03-28T00:57:44.164Z,4.60
2019-03-28T01:00:14.341Z,4.60
2019-03-28T01:02:43.924Z,4.50
2019-03-28T01:05:13.488Z,4.50
2019-03-28T01:07:42.940Z,4.50
2019-03-28T01:10:12.466Z,4.40
2019-03-28T01:12:41.996Z,4.50
2019-03-28T01:15:11.502Z,4.50
2019-03-28T01:17:41.068Z,4.40
2019-03-28T01:20:10.418Z,4.40
2019-03-28T01:22:39.873Z,4.40
2019-03-28T01:25:09.248Z,4.40
2019-03-28T01:27:38.560Z,4.40
2019-03-28T01:30:08.240Z,4.30
2019-03-28T01:32:37.611Z,4.20
2019-03-28T01:35:07.023Z,4.20
2019-03-28T01:37:36.346Z,4.20
2019-03-28T01:42:34.697Z,4.10
2019-03-28T01:45:04.553Z,4.20
2019-03-28T01:47:34.185Z,4.10
2019-03-28T01:50:06.706Z,4.10
2019-03-28T01:52:36.298Z,4.10
2019-03-28T01:55:07.317Z,4.10
2019-03-28T01:57:36.960Z,4.00
2019-03-28T02:02:35.313Z,3.90
2019-03-28T02:05:05.484Z,3.90
2019-03-28T02:07:34.858Z,4.00
2019-03-28T02:10:04.546Z,4.00
2019-03-28T02:12:34.141Z,4.00
2019-03-28T02:15:04.259Z,3.90
2019-03-28T02:17:34.003Z,3.80
2019-03-28T02:20:06.746Z,3.80
2019-03-28T02:22:36.225Z,3.80
2019-03-28T02:25:05.937Z,3.90
2019-03-28T02:27:35.443Z,3.80
2019-03-28T02:30:05.816Z,3.90
2019-03-28T02:32:35.485Z,3.80
2019-03-28T02:35:05.528Z,3.80
2019-03-28T02:37:34.971Z,3.80
2019-03-28T02:40:04.680Z,3.70
2019-03-28T02:42:34.194Z,3.70
2019-03-28T02:45:04.096Z,3.80
2019-03-28T02:47:33.751Z,3.70
2019-03-28T02:52:35.246Z,3.70
2019-03-28T02:57:41.426Z,3.70
2019-03-28T03:00:07.147Z,3.60
2019-03-28T03:02:36.933Z,3.70
2019-03-28T03:05:08.067Z,3.70
2019-03-28T03:07:37.544Z,3.60
2019-03-28T03:10:07.236Z,3.60
2019-03-28T03:12:36.826Z,3.60
2019-03-28T03:15:07.755Z,3.60
2019-03-28T03:17:37.278Z,3.50
2019-03-28T03:22:35.749Z,3.40
2019-03-28T03:25:05.489Z,3.40
2019-03-28T03:27:35.164Z,3.40
2019-03-28T03:30:08.027Z,3.30
2019-03-28T03:32:37.668Z,3.30
2019-03-28T03:35:07.438Z,3.30
2019-03-28T03:37:36.958Z,3.40
2019-03-28T03:42:35.785Z,3.30
2019-03-28T03:45:06.516Z,3.30
2019-03-28T03:47:36.054Z,3.30
2019-03-28T03:50:06.202Z,3.30
2019-03-28T03:52:35.732Z,3.20
2019-03-28T03:55:06.568Z,3.20
2019-03-28T03:57:36.054Z,3.20
2019-03-28T04:02:35.191Z,3.20
2019-03-28T04:05:06.149Z,3.20
2019-03-28T04:07:35.769Z,3.30
2019-03-28T04:12:35.053Z,3.20
2019-03-28T04:15:04.705Z,3.10
2019-03-28T04:17:34.290Z,3.10
2019-03-28T04:20:04.138Z,3.10
2019-03-28T04:22:33.562Z,3.00
2019-03-28T04:25:03.095Z,3.00
2019-03-28T04:27:32.658Z,3.00
2019-03-28T04:30:02.098Z,3.00
2019-03-28T04:35:00.687Z,3.00
2019-03-28T04:37:30.140Z,2.90
2019-03-28T04:39:59.781Z,2.90
2019-03-28T04:42:29.204Z,2.90
2019-03-28T04:44:58.714Z,2.90
2019-03-28T04:49:57.096Z,2.90
2019-03-28T04:52:26.726Z,2.90
2019-03-28T04:54:56.143Z,2.80
2019-03-28T04:57:25.722Z,2.90
2019-03-28T04:59:55.215Z,2.90
2019-03-28T05:02:24.839Z,2.90
2019-03-28T05:04:54.425Z,2.90
2019-03-28T05:07:24.003Z,2.90
2019-03-28T05:09:53.543Z,2.80
2019-03-28T05:12:23.029Z,2.80
2019-03-28T05:14:52.744Z,2.80
2019-03-28T05:17:22.257Z,2.80
2019-03-28T05:19:51.647Z,2.70
2019-03-28T05:22:21.230Z,2.70
2019-03-28T05:24:50.845Z,2.80
2019-03-28T05:27:20.348Z,2.80
2019-03-28T05:29:50.031Z,2.70
2019-03-28T05:32:19.713Z,2.70
2019-03-28T05:34:49.405Z,2.70
2019-03-28T05:37:18.838Z,2.70
2019-03-28T05:39:48.341Z,2.70
2019-03-28T05:42:17.852Z,2.70
2019-03-28T05:44:47.428Z,2.70
2019-03-28T05:47:16.858Z,2.80
2019-03-28T05:49:46.418Z,2.90
2019-03-28T05:52:16.017Z,3.00
2019-03-28T05:54:45.481Z,3.10
2019-03-28T05:57:15.035Z,3.20
2019-03-28T06:02:15.058Z,3.30
2019-03-28T06:04:44.476Z,3.40
2019-03-28T06:07:16.243Z,3.70
2019-03-28T06:09:45.436Z,4.20
2019-03-28T06:12:14.936Z,4.60
2019-03-28T06:14:45.512Z,5.10
2019-03-28T06:17:15.016Z,5.60
2019-03-28T06:19:44.605Z,5.80
2019-03-28T06:22:14.101Z,6.10
2019-03-28T06:24:44.603Z,6.10
2019-03-28T06:27:14.266Z,6.10
2019-03-28T06:29:43.975Z,6.20
2019-03-28T06:32:13.481Z,6.50
2019-03-28T06:37:11.981Z,6.80
2019-03-28T06:39:41.593Z,6.90
2019-03-28T06:42:11.042Z,7.10
2019-03-28T06:44:40.565Z,7.00
2019-03-28T06:47:10.177Z,6.80
2019-03-28T06:49:39.617Z,6.60
2019-03-28T06:52:09.417Z,6.30
2019-03-28T06:54:38.998Z,6.40
2019-03-28T06:57:08.634Z,6.40
2019-03-28T06:59:38.315Z,6.80
2019-03-28T07:02:07.865Z,6.80
2019-03-28T07:04:37.476Z,6.80
2019-03-28T07:07:07.020Z,7.50
2019-03-28T07:12:05.389Z,8.90
2019-03-28T07:14:34.935Z,9.00
2019-03-28T07:17:04.549Z,8.40
2019-03-28T07:22:03.258Z,8.80
2019-03-28T07:24:32.846Z,9.40
2019-03-28T07:27:02.444Z,9.20
2019-03-28T07:29:32.028Z,9.00
2019-03-28T07:32:01.572Z,9.30
2019-03-28T07:34:31.079Z,9.40
2019-03-28T07:37:00.794Z,9.80
2019-03-28T07:39:30.369Z,10.50
2019-03-28T07:41:59.918Z,10.50
2019-03-28T07:46:58.449Z,10.40
2019-03-28T07:49:27.956Z,9.60
2019-03-28T07:56:55.086Z,11.10
2019-03-28T07:59:24.578Z,10.20
2019-03-28T08:01:54.194Z,9.70
2019-03-28T08:04:23.701Z,9.00
2019-03-28T08:06:53.094Z,9.00
2019-03-28T08:09:35.787Z,8.80
2019-03-28T08:11:53.742Z,8.90
2019-03-28T08:14:23.347Z,9.50
2019-03-28T08:16:53.265Z,10.10
2019-03-28T08:19:22.860Z,10.90
2019-03-28T08:21:52.429Z,10.20
2019-03-28T08:24:21.953Z,10.30
2019-03-28T08:29:20.272Z,11.50
2019-03-28T08:31:50.750Z,10.60
2019-03-28T08:34:20.385Z,10.00
2019-03-28T08:36:49.963Z,10.20
2019-03-28T08:39:19.469Z,10.50
2019-03-28T08:41:49.811Z,11.10
2019-03-28T08:44:22.633Z,11.50
2019-03-28T08:46:51.553Z,11.30
2019-03-28T08:49:21.065Z,11.10
2019-03-28T08:51:50.727Z,11.00
2019-03-28T08:54:20.317Z,11.40
2019-03-28T08:56:49.812Z,12.00
2019-03-28T08:59:19.732Z,12.00
2019-03-28T09:01:49.261Z,11.70
2019-03-28T09:04:18.880Z,12.00
2019-03-28T09:06:48.380Z,12.20
2019-03-28T09:09:21.007Z,12.20
2019-03-28T09:11:49.408Z,12.30
2019-03-28T09:14:18.955Z,12.30
2019-03-28T09:16:48.377Z,13.10
2019-03-28T09:19:17.949Z,12.50
2019-03-28T09:21:47.529Z,12.60
2019-03-28T09:24:17.244Z,14.10
2019-03-28T09:26:46.759Z,13.90
2019-03-28T09:29:16.391Z,12.90
2019-03-28T09:31:45.881Z,13.00
2019-03-28T09:34:15.433Z,12.80
2019-03-28T09:36:45.106Z,13.10
2019-03-28T09:39:14.577Z,13.00
2019-03-28T09:41:44.213Z,12.70
2019-03-28T09:44:14.918Z,12.80
2019-03-28T09:46:44.461Z,12.70
2019-03-28T09:49:13.916Z,12.80
2019-03-28T09:51:43.682Z,13.10
2019-03-28T09:54:13.260Z,13.00
2019-03-28T09:56:42.782Z,14.20
2019-03-28T09:59:12.326Z,15.70
2019-03-28T10:04:10.721Z,14.10
2019-03-28T10:06:40.357Z,14.20
2019-03-28T10:09:10.039Z,13.70
2019-03-28T10:11:39.734Z,13.80
2019-03-28T10:14:09.169Z,14.60
2019-03-28T10:16:40.393Z,16.90
2019-03-28T10:19:10.146Z,15.00
2019-03-28T10:21:39.730Z,14.60
2019-03-28T10:24:09.391Z,15.40
2019-03-28T10:26:39.524Z,16.10
2019-03-28T10:29:09.398Z,15.60
2019-03-28T10:31:39.169Z,16.50
2019-03-28T10:34:08.801Z,16.40
2019-03-28T10:36:38.338Z,16.10
2019-03-28T10:39:09.939Z,15.70
2019-03-28T10:41:40.019Z,15.80
2019-03-28T10:44:09.824Z,17.00
2019-03-28T10:46:40.085Z,17.90
2019-03-28T10:49:09.653Z,18.90
2019-03-28T10:51:39.204Z,20.20
2019-03-28T10:54:19.343Z,18.50
2019-03-28T10:56:51.226Z,16.50
2019-03-28T10:59:22.785Z,15.50
2019-03-28T11:01:50.114Z,14.50
2019-03-28T11:04:14.185Z,14.70
2019-03-28T11:06:43.837Z,14.80
2019-03-28T11:09:13.465Z,14.50
2019-03-28T11:11:42.901Z,14.20
2019-03-28T11:14:12.367Z,14.20
2019-03-28T11:16:41.878Z,14.70
2019-03-28T11:19:11.539Z,15.50
2019-03-28T11:21:41.212Z,15.30
2019-03-28T11:24:10.932Z,15.30
2019-03-28T11:26:40.444Z,15.30
2019-03-28T11:31:46.605Z,16.70
2019-03-28T11:34:10.302Z,16.60
2019-03-28T11:36:39.897Z,15.50
2019-03-28T11:39:09.701Z,16.50
2019-03-28T11:41:39.193Z,16.80
2019-03-28T11:44:09.020Z,17.10
2019-03-28T11:46:38.579Z,17.90
2019-03-28T11:49:08.175Z,18.50
2019-03-28T11:51:37.782Z,16.20
2019-03-28T11:54:07.533Z,15.70
2019-03-28T11:56:37.149Z,14.90
2019-03-28T12:01:36.246Z,14.50
2019-03-28T12:04:05.904Z,14.60
2019-03-28T12:06:35.408Z,14.10
2019-03-28T12:09:07.877Z,14.80
2019-03-28T12:11:37.354Z,14.50
2019-03-28T12:14:06.841Z,14.60
2019-03-28T12:19:05.353Z,14.20
2019-03-28T12:21:35.059Z,14.30
2019-03-28T12:24:04.696Z,14.20
2019-03-28T12:26:34.253Z,14.30
2019-03-28T12:29:05.820Z,14.70
2019-03-28T12:31:35.440Z,15.00
2019-03-28T12:34:04.978Z,14.50
2019-03-28T12:36:34.561Z,14.30
2019-03-28T12:39:05.004Z,14.60
2019-03-28T12:41:34.509Z,14.30
2019-03-28T12:44:04.164Z,14.30
2019-03-28T12:46:33.898Z,14.10
2019-03-28T12:49:03.402Z,14.30
2019-03-28T12:51:33.048Z,14.50
2019-03-28T12:54:02.654Z,14.60
2019-03-28T12:56:32.272Z,14.70
2019-03-28T12:59:01.934Z,14.80
2019-03-28T13:01:31.661Z,14.80
2019-03-28T13:04:01.093Z,14.80
2019-03-28T13:06:30.845Z,14.60
2019-03-28T13:09:00.382Z,14.40
2019-03-28T13:13:58.657Z,15.00
2019-03-28T13:16:28.195Z,15.00
2019-03-28T13:21:26.560Z,14.40
2019-03-28T13:23:56.060Z,14.50
2019-03-28T13:28:54.658Z,14.60
2019-03-28T13:31:24.441Z,14.80
2019-03-28T13:33:53.966Z,14.70
2019-03-28T13:36:23.612Z,14.60
2019-03-28T13:38:53.137Z,14.50
2019-03-28T13:41:22.642Z,14.60
2019-03-28T13:46:20.832Z,14.30
2019-03-28T13:48:50.584Z,14.40
2019-03-28T13:51:20.165Z,14.40
2019-03-28T13:53:52.107Z,14.60
2019-03-28T13:56:21.042Z,14.70
2019-03-28T13:58:50.589Z,15.00
2019-03-28T14:01:20.187Z,14.80
2019-03-28T14:03:50.157Z,14.50
2019-03-28T14:06:19.745Z,14.40
2019-03-28T14:08:49.301Z,14.40
2019-03-28T14:11:18.892Z,14.60
2019-03-28T14:16:17.458Z,14.50
2019-03-28T14:18:46.932Z,14.50
2019-03-28T14:21:16.388Z,14.50
2019-03-28T14:23:45.951Z,14.70
2019-03-28T14:26:15.489Z,14.50
2019-03-28T14:28:45.050Z,14.40
2019-03-28T14:33:43.641Z,14.70
2019-03-28T14:36:13.186Z,15.00
2019-03-28T14:38:42.858Z,15.10
2019-03-28T14:43:41.208Z,15.60
2019-03-28T14:46:10.864Z,15.20
2019-03-28T14:48:40.500Z,14.90
2019-03-28T14:51:10.110Z,14.70
2019-03-28T14:53:39.690Z,14.50
2019-03-28T14:56:09.305Z,14.50
2019-03-28T14:58:38.888Z,14.90
2019-03-28T15:01:08.469Z,14.60
2019-03-28T15:03:38.009Z,14.20
2019-03-28T15:06:07.549Z,14.20
2019-03-28T15:08:37.257Z,14.30
2019-03-28T15:11:06.608Z,14.20
2019-03-28T15:13:36.147Z,14.20
2019-03-28T15:18:34.617Z,13.80
2019-03-28T15:21:04.255Z,13.80
2019-03-28T15:23:33.809Z,13.80
2019-03-28T15:26:03.470Z,13.70
2019-03-28T15:31:02.058Z,13.80
2019-03-28T15:33:39.362Z,13.70
2019-03-28T15:36:02.923Z,13.70
2019-03-28T15:38:32.425Z,13.60
2019-03-28T15:41:01.960Z,13.80
2019-03-28T15:43:31.533Z,13.80
2019-03-28T15:48:29.806Z,13.70
2019-03-28T15:50:59.505Z,13.80
2019-03-28T15:53:28.924Z,13.80
2019-03-28T15:58:27.421Z,13.70
2019-03-28T16:00:56.938Z,13.70
2019-03-28T16:03:26.462Z,13.70
2019-03-28T16:08:27.773Z,13.60
2019-03-28T16:10:57.678Z,13.50
2019-03-28T16:15:56.042Z,13.50
2019-03-28T16:18:25.584Z,13.50
2019-03-28T16:20:55.395Z,13.50
2019-03-28T16:23:25.150Z,13.50
2019-03-28T16:25:54.809Z,13.50
2019-03-28T16:28:24.387Z,13.40
2019-03-28T16:30:53.981Z,13.30
2019-03-28T16:35:52.412Z,13.40
2019-03-28T16:38:21.953Z,13.40
2019-03-28T16:40:51.526Z,13.30
2019-03-28T16:43:21.162Z,13.20
2019-03-28T16:45:50.678Z,13.30
2019-03-28T16:48:20.229Z,13.30
2019-03-28T16:53:18.661Z,13.20
2019-03-28T16:55:48.274Z,13.10
2019-03-28T16:58:17.995Z,13.00
2019-03-28T17:00:47.738Z,13.10
2019-03-28T17:03:17.442Z,13.00
2019-03-28T17:05:47.313Z,12.90
2019-03-28T17:08:17.706Z,12.90
2019-03-28T17:10:52.299Z,12.90
2019-03-28T17:15:51.993Z,12.90
2019-03-28T17:18:21.533Z,12.90
2019-03-28T17:20:51.196Z,12.80
2019-03-28T17:23:21.233Z,12.70
2019-03-28T17:28:19.776Z,12.70
2019-03-28T17:30:49.424Z,12.70
2019-03-28T17:33:19.064Z,12.70
2019-03-28T17:35:48.685Z,12.60
2019-03-28T17:38:18.317Z,12.50
2019-03-28T17:40:47.902Z,12.50
2019-03-28T17:43:17.538Z,12.40
2019-03-28T17:48:16.349Z,12.30
2019-03-28T17:50:45.983Z,12.30
2019-03-28T17:55:44.474Z,12.10
2019-03-28T17:58:14.264Z,12.00
2019-03-28T18:00:45.793Z,12.00
2019-03-28T18:03:15.330Z,11.90
2019-03-28T18:05:57.371Z,11.90
2019-03-28T18:08:16.168Z,11.90
2019-03-28T18:10:45.797Z,11.90
2019-03-28T18:13:15.464Z,11.90
2019-03-28T18:15:44.878Z,11.80
2019-03-28T18:20:43.187Z,11.80
2019-03-28T18:23:13.116Z,11.70
2019-03-28T18:25:42.658Z,11.70
2019-03-28T18:28:12.303Z,11.60
2019-03-28T18:30:41.815Z,11.60
2019-03-28T18:33:11.353Z,11.50
2019-03-28T18:38:10.818Z,11.60
2019-03-28T18:40:40.888Z,11.60
2019-03-28T18:43:10.485Z,11.50
2019-03-28T18:45:40.026Z,11.50
2019-03-28T18:50:41.064Z,11.50
2019-03-28T18:53:11.085Z,11.50
2019-03-28T18:55:40.679Z,11.50
2019-03-28T18:58:10.333Z,11.50
2019-03-28T19:00:39.942Z,11.50
2019-03-28T19:03:09.552Z,11.50
2019-03-28T19:05:39.291Z,11.40
2019-03-28T19:08:08.823Z,11.40
2019-03-28T19:10:38.393Z,11.40
2019-03-28T19:15:37.021Z,11.40
2019-03-28T19:20:35.986Z,11.30
2019-03-28T19:23:07.171Z,11.30
2019-03-28T19:25:37.378Z,11.30
2019-03-28T19:28:07.861Z,11.40
2019-03-28T19:30:38.641Z,11.40
2019-03-28T19:35:37.435Z,11.20
2019-03-28T19:38:09.059Z,11.30
2019-03-28T19:40:38.698Z,11.30
2019-03-28T19:43:19.731Z,11.30
2019-03-28T19:45:39.634Z,11.40
2019-03-28T19:50:38.041Z,11.40
2019-03-28T19:53:07.669Z,11.30
2019-03-28T19:55:39.895Z,11.30
2019-03-28T19:58:09.117Z,11.30
2019-03-28T20:00:38.669Z,11.20
2019-03-28T20:03:08.370Z,11.20
2019-03-28T20:05:47.384Z,11.20
2019-03-28T20:08:15.442Z,11.20
2019-03-28T20:10:40.675Z,11.20
2019-03-28T20:15:39.143Z,11.20
2019-03-28T20:18:09.766Z,11.10
2019-03-28T20:23:08.296Z,11.20
2019-03-28T20:25:42.572Z,11.20
2019-03-28T20:28:12.915Z,11.20
2019-03-28T20:30:42.001Z,11.10
2019-03-28T20:35:41.489Z,11.20
2019-03-28T20:38:11.046Z,11.30
2019-03-28T20:40:43.174Z,11.20
2019-03-28T20:45:40.891Z,11.20
2019-03-28T20:48:10.668Z,11.10
2019-03-28T20:50:40.256Z,11.20
2019-03-28T20:53:09.783Z,11.20
2019-03-28T20:55:39.418Z,11.10
2019-03-28T20:58:09.111Z,11.20
2019-03-28T21:00:41.814Z,11.20
2019-03-28T21:05:40.396Z,11.10
2019-03-28T21:08:10.075Z,11.20
2019-03-28T21:10:39.614Z,11.20
2019-03-28T21:15:39.679Z,11.20
2019-03-28T21:20:38.033Z,11.20
2019-03-28T21:23:07.674Z,11.20
2019-03-28T21:25:37.317Z,11.10
2019-03-28T21:28:06.855Z,11.10
2019-03-28T21:33:07.169Z,11.20
2019-03-28T21:35:36.663Z,11.20
2019-03-28T21:38:06.249Z,11.40
2019-03-28T21:40:35.905Z,11.40
2019-03-28T21:43:05.536Z,11.20
2019-03-28T21:45:35.355Z,11.30
2019-03-28T21:48:05.026Z,11.30
2019-03-28T21:50:34.793Z,11.30
2019-03-28T21:53:04.642Z,11.20
2019-03-28T21:55:34.178Z,11.20
2019-03-28T21:58:04.919Z,11.20
2019-03-28T22:00:34.824Z,11.20
2019-03-28T22:03:04.490Z,11.20
2019-03-28T22:05:33.958Z,11.10
2019-03-28T22:08:03.690Z,11.10
2019-03-28T22:10:33.301Z,11.10
2019-03-28T22:13:02.887Z,11.10
2019-03-28T22:15:32.420Z,11.20
2019-03-28T22:18:02.049Z,11.00
2019-03-28T22:20:31.570Z,11.00
2019-03-28T22:23:01.439Z,11.00
2019-03-28T22:25:31.071Z,10.90
2019-03-28T22:28:00.625Z,11.00
2019-03-28T22:30:30.148Z,10.90
2019-03-28T22:32:59.864Z,10.90
2019-03-28T22:35:29.449Z,10.90
2019-03-28T22:37:59.068Z,11.00
2019-03-28T22:40:28.590Z,10.90
2019-03-28T22:42:58.282Z,11.00
2019-03-28T22:45:27.726Z,11.00
2019-03-28T22:48:10.052Z,10.90
2019-03-28T22:50:28.634Z,10.90
2019-03-28T22:52:58.265Z,10.90
2019-03-28T22:57:56.697Z,11.00
2019-03-28T23:00:39.593Z,10.80
2019-03-28T23:03:09.463Z,10.80
2019-03-28T23:05:38.982Z,10.90
2019-03-28T23:08:08.619Z,10.90
2019-03-28T23:10:38.145Z,10.80
2019-03-28T23:13:08.128Z,10.80
2019-03-28T23:15:37.713Z,10.70
2019-03-28T23:18:07.269Z,10.70
2019-03-28T23:20:36.730Z,10.60
2019-03-28T23:23:06.276Z,10.50
2019-03-28T23:28:04.607Z,10.30
2019-03-28T23:30:34.172Z,10.30
2019-03-28T23:33:04.942Z,10.30
2019-03-28T23:35:34.471Z,10.20
2019-03-28T23:38:04.056Z,10.20
2019-03-28T23:40:33.545Z,10.10
2019-03-28T23:43:03.014Z,10.00
2019-03-28T23:45:32.521Z,10.00
2019-03-28T23:48:02.123Z,9.90
2019-03-28T23:50:33.008Z,9.80
2019-03-28T23:53:02.801Z,9.80
2019-03-28T23:55:32.296Z,9.80
2019-03-28T23:58:01.928Z,9.70
